KHSB

Harrisburg-Raleigh Airport

Harrisburg, Illinois, USA
METAR KHSB 231415Z AUTO 31010KT 10SM OVC005 11/11 A3027 RMK AO2 T01070107
Observed Flight Rules
Feb-23 @ 14:15 UTC (23 minutes ago) Instrument Flight Rules
Wind Visibility Clouds
310° at 10 knots 10 miles
  • Overcast at 500' AGL
Temperatures Readings
Current 11°C / 52°F
Dewpoint 11°C / 52°F
Humidity 100%
Altimeter 30.27" Hg
Pressure 1025 hPa
Elevation 121
METAR KHSB 231415Z AUTO 31010KT 10SM OVC005 11/11 A3027 RMK AO2 T01070107
Observed Flight Rules
Feb-23 @ 14:15 UTC
(23 minutes ago)
IFR
Wind Visibility
310° at 10 knots 10 miles
Clouds
  • Overcast at 500' AGL
Temperature Dewpoint
11°C / 52°F 11°C / 52°F
Humidity Altimeter Pressure
100% 30.27" Hg 1025 hPa